Time;durP1;ratioP1;P1;durP2;ratioP2;P2;SDS_P1;SDS_P2;PMS_P1;PMS_P2;Temp;Humidity;BMP_temperature;BMP_pressure;BME280_temperature;BME280_humidity;BME280_pressure;Samples;Min_cycle;Max_cycle;Signal;HPM_P1;HPM_P2
2021/05/04 00:01:38;;;;;;;10.83;8.30;;;8.80;99.90;;;;;;5097568;28;20176;-68
2021/05/04 00:04:04;;;;;;;15.40;9.10;;;8.80;99.90;;;;;;5097400;28;20192;-67
2021/05/04 00:06:29;;;;;;;12.00;8.80;;;8.90;99.90;;;;;;5097550;28;20177;-67
2021/05/04 00:08:55;;;;;;;10.50;7.93;;;9.00;99.90;;;;;;5096126;28;20621;-68
2021/05/04 00:11:21;;;;;;;10.83;9.07;;;9.00;99.90;;;;;;5097489;28;20524;-67
2021/05/04 00:13:46;;;;;;;10.10;8.07;;;8.70;99.90;;;;;;5097450;28;20188;-68
2021/05/04 00:16:12;;;;;;;10.23;8.63;;;8.90;99.90;;;;;;5097336;28;20760;-68
2021/05/04 00:18:37;;;;;;;9.90;8.37;;;8.70;99.90;;;;;;5097251;28;20220;-68
2021/05/04 00:21:03;;;;;;;14.30;8.90;;;8.50;99.90;;;;;;5097247;28;20168;-67
2021/05/04 00:23:29;;;;;;;12.40;7.80;;;8.50;99.90;;;;;;5097233;28;20199;-66
2021/05/04 00:25:55;;;;;;;12.20;9.10;;;8.30;99.90;;;;;;5097105;28;20405;-67
2021/05/04 00:28:20;;;;;;;10.70;8.87;;;8.20;99.90;;;;;;5095736;28;20207;-67
2021/05/04 00:30:46;;;;;;;13.07;8.53;;;8.20;99.90;;;;;;5097016;28;20259;-67
2021/05/04 00:33:11;;;;;;;11.13;8.50;;;8.20;99.90;;;;;;5096986;28;20196;-68
2021/05/04 00:35:37;;;;;;;11.23;9.33;;;8.10;99.90;;;;;;5096884;28;20204;-66
2021/05/04 00:38:03;;;;;;;11.70;8.90;;;7.90;99.90;;;;;;5096924;28;20660;-66
2021/05/04 00:40:28;;;;;;;10.68;8.98;;;7.80;99.90;;;;;;5096896;28;20259;-67
2021/05/04 00:42:54;;;;;;;12.67;9.30;;;8.00;99.90;;;;;;5096815;28;20296;-68
2021/05/04 00:45:20;;;;;;;12.10;9.40;;;7.90;99.90;;;;;;5096823;28;20172;-67
2021/05/04 00:47:46;;;;;;;14.23;9.90;;;8.10;99.90;;;;;;5096292;28;20708;-66
2021/05/04 00:50:12;;;;;;;13.27;10.30;;;8.20;99.90;;;;;;5095383;28;20401;-68
2021/05/04 00:52:38;;;;;;;14.45;11.70;;;8.10;99.90;;;;;;5096507;28;20188;-68
2021/05/04 00:55:04;;;;;;;14.15;11.20;;;8.10;99.90;;;;;;5095323;28;20529;-68
2021/05/04 00:57:32;;;;;;;14.75;10.88;;;8.10;99.90;;;;;;5095173;28;20220;-67
2021/05/04 01:00:00;;;;;;;14.65;11.02;;;8.00;99.90;;;;;;5096895;28;20169;-66
2021/05/04 01:02:26;;;;;;;12.57;9.15;;;8.10;99.90;;;;;;5096468;28;20549;-66
2021/05/04 01:04:51;;;;;;;11.77;9.63;;;8.00;99.90;;;;;;5096997;28;20172;-67
2021/05/04 01:07:17;;;;;;;11.80;9.07;;;7.90;99.90;;;;;;5096346;28;20184;-67
2021/05/04 01:09:42;;;;;;;11.63;9.50;;;7.80;99.90;;;;;;5096667;28;20173;-67
2021/05/04 01:12:08;;;;;;;9.93;8.80;;;7.70;99.90;;;;;;5096286;28;20184;-67
2021/05/04 01:14:34;;;;;;;13.70;9.90;;;7.70;99.90;;;;;;5096525;28;20662;-67
2021/05/04 01:17:00;;;;;;;18.30;9.60;;;7.70;99.90;;;;;;5096029;28;20977;-68
2021/05/04 01:19:26;;;;;;;11.95;10.38;;;7.70;99.90;;;;;;5096368;28;20193;-66
2021/05/04 01:21:52;;;;;;;12.33;10.20;;;7.50;99.90;;;;;;5096106;28;20202;-68
2021/05/04 01:24:18;;;;;;;15.73;9.47;;;7.60;99.90;;;;;;5096299;28;20195;-66
2021/05/04 01:26:45;;;;;;;13.80;9.07;;;7.60;99.90;;;;;;5095920;28;20184;-69
2021/05/04 01:29:11;;;;;;;12.45;8.55;;;7.70;99.90;;;;;;5096194;28;20263;-66
2021/05/04 01:31:37;;;;;;;12.98;9.35;;;7.80;99.90;;;;;;5095871;28;20177;-66
2021/05/04 01:34:03;;;;;;;10.43;8.30;;;7.70;99.90;;;;;;5096045;28;20242;-66
2021/05/04 01:36:29;;;;;;;13.10;10.15;;;7.50;99.90;;;;;;5095758;28;20212;-66
2021/05/04 01:38:55;;;;;;;10.90;9.40;;;7.50;99.90;;;;;;5095877;28;20727;-66
2021/05/04 01:41:21;;;;;;;13.00;9.30;;;7.60;99.90;;;;;;5095814;28;20237;-68
2021/05/04 01:43:46;;;;;;;11.43;9.30;;;7.40;99.90;;;;;;5095774;28;20192;-66
2021/05/04 01:46:12;;;;;;;10.30;8.43;;;7.30;99.90;;;;;;5095642;28;20264;-67
2021/05/04 01:48:38;;;;;;;16.20;9.60;;;7.30;99.90;;;;;;5095434;28;20490;-66
2021/05/04 01:51:04;;;;;;;10.90;8.67;;;7.20;99.90;;;;;;5095487;28;20222;-69
2021/05/04 01:53:29;;;;;;;15.35;10.25;;;7.10;99.90;;;;;;5094092;28;20200;-66
2021/05/04 01:55:55;;;;;;;18.20;10.10;;;7.10;99.90;;;;;;5094050;28;20644;-66
2021/05/04 01:58:21;;;;;;;11.77;8.70;;;7.10;99.90;;;;;;5093888;28;20204;-68
2021/05/04 02:00:46;;;;;;;13.70;9.00;;;7.20;99.90;;;;;;5094020;28;20211;-67
2021/05/04 02:03:12;;;;;;;16.57;9.60;;;7.20;99.90;;;;;;5094148;28;20253;-67
2021/05/04 02:05:38;;;;;;;14.47;9.40;;;7.00;99.90;;;;;;5095226;28;20179;-68
2021/05/04 02:08:04;;;;;;;15.80;9.90;;;7.00;99.90;;;;;;5095176;28;20228;-67
2021/05/04 02:10:29;;;;;;;14.90;9.17;;;7.00;99.90;;;;;;5095062;28;20172;-68
2021/05/04 02:12:55;;;;;;;13.30;9.60;;;6.90;99.90;;;;;;5094875;28;20553;-67
2021/05/04 02:15:20;;;;;;;11.83;9.07;;;7.00;99.90;;;;;;5095064;28;20177;-68
2021/05/04 02:17:46;;;;;;;11.27;9.37;;;6.80;99.90;;;;;;5094872;28;20197;-67
2021/05/04 02:20:12;;;;;;;18.33;10.27;;;6.80;99.90;;;;;;5094912;28;20537;-67
2021/05/04 02:22:38;;;;;;;11.95;8.70;;;6.80;99.90;;;;;;5094270;28;20220;-66
2021/05/04 02:25:05;;;;;;;14.93;9.43;;;6.90;99.90;;;;;;5093616;28;20676;-66
2021/05/04 02:27:30;;;;;;;12.32;8.68;;;6.70;99.90;;;;;;5094272;28;20184;-66
2021/05/04 02:29:56;;;;;;;14.20;9.40;;;6.70;99.90;;;;;;5093697;28;20180;-67
2021/05/04 02:32:21;;;;;;;16.27;9.53;;;6.70;99.90;;;;;;5094660;28;20169;-67
2021/05/04 02:34:47;;;;;;;11.80;10.17;;;6.60;99.90;;;;;;5095265;28;20617;-67
2021/05/04 02:37:13;;;;;;;12.03;10.40;;;6.60;99.90;;;;;;5094651;28;20688;-67
2021/05/04 02:39:38;;;;;;;13.77;9.90;;;6.50;99.90;;;;;;5095011;28;20200;-68
2021/05/04 02:42:04;;;;;;;16.73;10.00;;;6.60;99.90;;;;;;5094613;28;20631;-68
2021/05/04 02:44:30;;;;;;;14.40;10.40;;;6.70;99.90;;;;;;5094727;28;20249;-67
2021/05/04 02:46:56;;;;;;;13.40;9.80;;;6.80;99.90;;;;;;5093171;28;20424;-67
2021/05/04 02:49:21;;;;;;;11.33;9.17;;;6.70;99.90;;;;;;5094812;28;20293;-66
2021/05/04 02:51:47;;;;;;;12.90;9.67;;;6.60;99.90;;;;;;5093168;28;20405;-69
2021/05/04 02:54:13;;;;;;;16.27;10.30;;;6.50;99.90;;;;;;5094578;28;20205;-67
2021/05/04 02:56:39;;;;;;;16.00;9.30;;;6.40;99.90;;;;;;5094221;28;20196;-67
2021/05/04 02:59:04;;;;;;;17.07;10.10;;;6.30;99.90;;;;;;5094438;28;20662;-66
2021/05/04 03:01:30;;;;;;;10.40;9.13;;;6.20;99.90;;;;;;5092997;28;20184;-68
2021/05/04 03:03:55;;;;;;;15.17;9.57;;;6.30;99.90;;;;;;5094332;28;20622;-67
2021/05/04 03:06:21;;;;;;;14.63;9.67;;;6.20;99.90;;;;;;5094286;28;20185;-67
2021/05/04 03:08:47;;;;;;;12.77;10.00;;;6.20;99.90;;;;;;5094183;28;20196;-66
2021/05/04 03:11:13;;;;;;;11.70;9.70;;;6.20;99.90;;;;;;5094201;28;20168;-67
2021/05/04 03:13:38;;;;;;;12.77;8.90;;;6.20;99.90;;;;;;5093806;28;20200;-67
2021/05/04 03:16:04;;;;;;;16.53;10.70;;;6.10;99.90;;;;;;5093920;28;20457;-67
2021/05/04 03:18:30;;;;;;;13.70;9.87;;;6.10;99.90;;;;;;5093903;28;20678;-66
2021/05/04 03:20:55;;;;;;;15.67;11.43;;;6.20;99.90;;;;;;5093926;28;20405;-68
2021/05/04 03:23:22;;;;;;;14.73;10.10;;;6.10;99.90;;;;;;5093900;28;20254;-67
2021/05/04 03:25:48;;;;;;;14.93;9.63;;;6.30;99.90;;;;;;5093850;28;20183;-68
2021/05/04 03:28:14;;;;;;;14.65;10.05;;;6.20;99.90;;;;;;5093916;28;20593;-66
2021/05/04 03:30:41;;;;;;;12.82;9.43;;;6.20;99.90;;;;;;5092519;28;20180;-67
2021/05/04 03:33:06;;;;;;;17.77;10.57;;;6.20;99.90;;;;;;5092869;28;20242;-67
2021/05/04 03:35:33;;;;;;;12.80;9.23;;;6.20;99.90;;;;;;5093770;28;20204;-68
2021/05/04 03:37:59;;;;;;;16.05;9.68;;;6.20;99.90;;;;;;5093621;28;20192;-67
2021/05/04 03:40:24;;;;;;;13.67;10.23;;;6.10;99.90;;;;;;5093721;28;20226;-67
2021/05/04 03:42:50;;;;;;;18.93;9.80;;;6.20;99.90;;;;;;5093496;28;20519;-68
2021/05/04 03:45:16;;;;;;;12.20;9.50;;;6.20;99.90;;;;;;5093632;28;20176;-68
2021/05/04 03:47:44;;;;;;;12.60;9.90;;;6.10;99.90;;;;;;5093324;28;20231;-68
2021/05/04 03:50:13;;;;;;;13.70;10.30;;;6.10;99.90;;;;;;5093662;28;20392;-66
2021/05/04 03:52:39;;;;;;;14.57;10.02;;;6.20;99.90;;;;;;5093242;28;20241;-66
2021/05/04 03:55:05;;;;;;;14.73;10.63;;;6.10;99.90;;;;;;5093634;28;20259;-67
2021/05/04 03:57:31;;;;;;;19.75;12.50;;;6.20;99.90;;;;;;5093504;28;20551;-67
2021/05/04 03:59:57;;;;;;;16.30;10.60;;;6.30;99.90;;;;;;5092506;28;20191;-66
2021/05/04 04:02:23;;;;;;;19.60;10.60;;;6.30;99.90;;;;;;5093626;28;20172;-66
2021/05/04 04:04:49;;;;;;;13.50;10.13;;;6.30;99.90;;;;;;5094057;28;20179;-66
2021/05/04 04:07:14;;;;;;;13.57;8.47;;;6.40;99.90;;;;;;5090469;28;20952;-67
2021/05/04 04:09:40;;;;;;;20.70;14.03;;;6.50;99.90;;;;;;5093936;28;20251;-66
2021/05/04 04:12:06;;;;;;;19.17;12.47;;;6.30;99.90;;;;;;5091888;28;20188;-68
2021/05/04 04:14:31;;;;;;;17.90;12.80;;;6.60;99.90;;;;;;5091934;28;20208;-66
2021/05/04 04:16:57;;;;;;;19.83;11.17;;;7.10;99.90;;;;;;5091796;28;20461;-67
2021/05/04 04:19:22;;;;;;;14.23;10.67;;;7.40;99.90;;;;;;5093446;28;20200;-66
2021/05/04 04:21:49;;;;;;;18.43;11.03;;;7.70;99.90;;;;;;5093246;28;20293;-68
2021/05/04 04:24:16;;;;;;;15.30;9.73;;;7.70;99.90;;;;;;5092472;28;20193;-67
2021/05/04 04:26:41;;;;;;;12.98;10.07;;;7.80;99.90;;;;;;5091847;28;20587;-68
2021/05/04 04:29:07;;;;;;;14.40;9.87;;;8.00;99.90;;;;;;5092888;28;20228;-67
2021/05/04 04:31:33;;;;;;;14.10;10.60;;;8.10;99.90;;;;;;5090081;28;20421;-69
2021/05/04 04:33:59;;;;;;;16.45;9.98;;;8.20;99.90;;;;;;5091643;28;20677;-67
2021/05/04 04:36:26;;;;;;;19.77;11.60;;;8.30;99.90;;;;;;5091557;28;20236;-67
2021/05/04 04:38:51;;;;;;;13.48;9.43;;;8.40;99.90;;;;;;5091325;28;20721;-67
2021/05/04 04:41:17;;;;;;;14.63;8.93;;;8.50;99.90;;;;;;5091179;28;20374;-67
2021/05/04 04:43:43;;;;;;;15.10;9.93;;;8.70;99.90;;;;;;5092620;28;20193;-67
2021/05/04 04:46:08;;;;;;;14.87;9.60;;;8.80;99.90;;;;;;5096240;28;20499;-67
2021/05/04 04:48:34;;;;;;;17.90;10.87;;;8.90;99.90;;;;;;5096466;28;20301;-66
2021/05/04 04:51:00;;;;;;;12.77;10.10;;;8.60;99.90;;;;;;5096411;28;20668;-69
2021/05/04 04:53:25;;;;;;;16.20;11.03;;;8.50;99.90;;;;;;5095050;28;20196;-68
2021/05/04 04:55:51;;;;;;;23.83;16.70;;;8.50;99.90;;;;;;5095196;28;20476;-66
2021/05/04 04:58:16;;;;;;;28.67;18.13;;;8.40;99.90;;;;;;5096508;28;20196;-67
2021/05/04 05:00:42;;;;;;;27.17;14.83;;;8.60;99.90;;;;;;5095314;28;20197;-67
2021/05/04 05:03:08;;;;;;;18.97;13.73;;;8.70;99.90;;;;;;5081174;28;20227;-67
2021/05/04 05:05:33;;;;;;;19.90;13.80;;;8.90;99.90;;;;;;5095103;28;20176;-68
2021/05/04 05:07:59;;;;;;;18.97;13.13;;;8.90;99.90;;;;;;5093858;28;20201;-67
2021/05/04 05:10:24;;;;;;;17.60;12.63;;;9.00;99.90;;;;;;5094818;28;20192;-69
2021/05/04 05:12:50;;;;;;;13.83;10.20;;;9.10;99.90;;;;;;5093734;28;20243;-68
2021/05/04 05:15:15;;;;;;;13.10;10.00;;;9.20;99.90;;;;;;5089592;28;20181;-68
2021/05/04 05:17:41;;;;;;;16.27;11.07;;;9.40;99.90;;;;;;5093202;28;20705;-66
2021/05/04 05:20:08;;;;;;;15.27;9.83;;;9.50;99.90;;;;;;5090686;28;20177;-68
2021/05/04 05:22:33;;;;;;;14.63;11.77;;;9.80;99.90;;;;;;5073857;28;20658;-69
2021/05/04 05:25:00;;;;;;;21.23;15.00;;;9.90;99.90;;;;;;5086608;28;20181;-67
2021/05/04 05:27:27;;;;;;;14.65;11.48;;;10.00;99.90;;;;;;5095062;28;20173;-67
2021/05/04 05:29:53;;;;;;;15.77;10.65;;;10.10;99.90;;;;;;5096348;28;20206;-67
2021/05/04 05:32:18;;;;;;;15.60;11.80;;;10.20;99.90;;;;;;5095921;28;20677;-67
2021/05/04 05:34:45;;;;;;;13.67;10.47;;;10.30;99.90;;;;;;5095993;28;20177;-67
2021/05/04 05:37:10;;;;;;;18.48;11.45;;;10.50;99.90;;;;;;5094704;28;20204;-68
2021/05/04 05:39:37;;;;;;;14.20;10.53;;;10.60;99.90;;;;;;5095222;28;20206;-67
2021/05/04 05:42:03;;;;;;;14.23;10.90;;;10.70;99.90;;;;;;5094261;28;20165;-68
2021/05/04 05:44:30;;;;;;;15.20;10.90;;;10.70;99.90;;;;;;5095889;28;20226;-67
2021/05/04 05:46:55;;;;;;;16.50;10.60;;;10.80;99.90;;;;;;5095481;28;20218;-68
2021/05/04 05:49:21;;;;;;;13.57;10.77;;;11.00;99.90;;;;;;5095910;28;20248;-68
2021/05/04 05:51:47;;;;;;;14.30;10.60;;;11.10;99.90;;;;;;5095263;28;20252;-68
2021/05/04 05:54:12;;;;;;;13.57;10.77;;;11.10;99.90;;;;;;5095611;28;20284;-67
2021/05/04 05:56:39;;;;;;;13.70;10.80;;;11.30;99.90;;;;;;5089774;28;20215;-69
2021/05/04 05:59:05;;;;;;;14.25;11.20;;;11.50;99.90;;;;;;5093046;28;20208;-68
2021/05/04 06:01:30;;;;;;;20.23;11.93;;;11.70;99.90;;;;;;5093566;28;20188;-68
2021/05/04 06:03:56;;;;;;;13.30;10.53;;;11.80;99.90;;;;;;5094573;28;20215;-67
2021/05/04 06:06:21;;;;;;;14.47;10.40;;;11.90;99.90;;;;;;5095273;28;20185;-69
2021/05/04 06:08:47;;;;;;;12.57;10.50;;;12.00;99.90;;;;;;5094140;28;20224;-68
2021/05/04 06:11:13;;;;;;;12.88;10.40;;;12.20;99.90;;;;;;5094369;28;20172;-68
2021/05/04 06:13:40;;;;;;;14.20;9.50;;;12.30;99.90;;;;;;5093084;28;20199;-67
2021/05/04 06:16:07;;;;;;;12.18;9.63;;;12.60;99.90;;;;;;5093217;28;20219;-68
2021/05/04 06:18:33;;;;;;;14.10;9.10;;;12.90;99.90;;;;;;5079424;28;20208;-68
2021/05/04 06:20:58;;;;;;;11.03;9.30;;;13.70;99.90;;;;;;5073288;28;20185;-68
2021/05/04 06:23:24;;;;;;;12.53;8.67;;;13.60;99.90;;;;;;5074304;28;20205;-67
2021/05/04 06:25:50;;;;;;;10.17;8.40;;;13.70;99.90;;;;;;5090620;28;20641;-68
2021/05/04 06:28:15;;;;;;;12.13;8.90;;;13.60;99.90;;;;;;5083064;28;20368;-69
2021/05/04 06:30:41;;;;;;;11.00;8.60;;;14.00;99.90;;;;;;5086658;28;20192;-69
2021/05/04 06:33:12;;;;;;;10.60;8.17;;;14.30;99.90;;;;;;5088000;28;20291;-69
2021/05/04 06:35:41;;;;;;;10.85;8.50;;;14.60;99.90;;;;;;5090456;28;20169;-67
2021/05/04 06:38:08;;;;;;;13.65;10.82;;;14.90;99.90;;;;;;5091922;28;20295;-68
2021/05/04 06:40:34;;;;;;;14.13;8.77;;;14.50;99.90;;;;;;5089869;28;20434;-69
2021/05/04 06:43:01;;;;;;;11.00;8.57;;;15.00;99.90;;;;;;5090266;28;20476;-68
2021/05/04 06:45:27;;;;;;;9.90;7.83;;;15.10;99.90;;;;;;5088273;28;20279;-70
2021/05/04 06:47:53;;;;;;;8.83;7.90;;;14.80;99.90;;;;;;5086974;28;20498;-69
2021/05/04 06:50:19;;;;;;;11.10;8.60;;;15.20;99.90;;;;;;5091011;28;20409;-68
2021/05/04 06:52:45;;;;;;;9.83;6.77;;;15.10;99.90;;;;;;5086647;28;20204;-70
2021/05/04 06:55:11;;;;;;;10.10;7.00;;;15.40;99.90;;;;;;5089913;28;20921;-70
2021/05/04 06:57:37;;;;;;;12.63;8.23;;;15.30;99.90;;;;;;5089081;28;20503;-71
2021/05/04 07:00:05;;;;;;;9.87;8.00;;;15.40;99.90;;;;;;5091070;28;20842;-69
2021/05/04 07:02:30;;;;;;;10.07;7.70;;;15.20;99.90;;;;;;5088888;28;20208;-69
2021/05/04 07:04:56;;;;;;;11.57;8.20;;;14.90;99.90;;;;;;5093679;28;20457;-67
2021/05/04 07:07:21;;;;;;;9.07;7.17;;;15.00;99.90;;;;;;5093281;28;20184;-67
2021/05/04 07:09:47;;;;;;;9.10;7.57;;;15.20;99.90;;;;;;5088796;28;20183;-68
2021/05/04 07:12:13;;;;;;;12.00;7.67;;;15.50;99.90;;;;;;5091837;28;20180;-69
2021/05/04 07:14:39;;;;;;;8.97;7.53;;;15.60;99.90;;;;;;5087136;28;20682;-70
2021/05/04 07:17:05;;;;;;;9.87;6.97;;;15.60;99.90;;;;;;5093105;28;20254;-68
2021/05/04 07:19:31;;;;;;;14.00;8.80;;;15.50;99.90;;;;;;5091222;28;20457;-68
2021/05/04 07:21:56;;;;;;;8.73;7.57;;;15.50;99.90;;;;;;5083232;28;20436;-70
2021/05/04 07:24:23;;;;;;;10.77;7.80;;;15.40;99.90;;;;;;5088310;28;20208;-70
2021/05/04 07:26:48;;;;;;;7.97;6.17;;;15.80;99.90;;;;;;5090635;28;20184;-68
2021/05/04 07:29:14;;;;;;;11.97;8.17;;;15.80;99.90;;;;;;5091182;28;20456;-67
2021/05/04 07:31:41;;;;;;;8.37;6.50;;;15.70;99.90;;;;;;5091895;28;20542;-68
2021/05/04 07:34:08;;;;;;;9.37;7.13;;;15.20;99.90;;;;;;5092749;28;20253;-67
2021/05/04 07:36:34;;;;;;;7.63;6.47;;;15.20;99.90;;;;;;5089642;28;20463;-68
2021/05/04 07:39:00;;;;;;;9.43;6.80;;;15.60;99.90;;;;;;5088781;28;20468;-69
2021/05/04 07:41:26;;;;;;;10.73;7.40;;;15.80;99.90;;;;;;5084333;28;20187;-68
2021/05/04 07:43:52;;;;;;;8.43;5.70;;;15.70;99.90;;;;;;5078761;28;20266;-67
2021/05/04 07:46:17;;;;;;;7.73;6.27;;;15.60;99.90;;;;;;5084352;28;20870;-69
2021/05/04 07:48:43;;;;;;;9.27;6.80;;;15.80;99.90;;;;;;5068919;28;20240;-68
2021/05/04 07:51:09;;;;;;;9.97;7.40;;;15.80;99.90;;;;;;5083281;28;20200;-69
2021/05/04 07:53:34;;;;;;;7.57;6.57;;;16.10;99.90;;;;;;5085969;28;20211;-67
2021/05/04 07:56:01;;;;;;;8.17;5.07;;;16.20;99.90;;;;;;5083703;28;20215;-68
2021/05/04 07:58:27;;;;;;;7.77;5.90;;;15.60;99.90;;;;;;5083424;28;20215;-67
2021/05/04 08:00:53;;;;;;;8.90;7.07;;;15.40;99.90;;;;;;5084545;28;20426;-69
2021/05/04 08:03:18;;;;;;;7.50;6.40;;;15.60;99.90;;;;;;5089717;28;20200;-67
2021/05/04 08:05:44;;;;;;;10.77;7.70;;;15.40;99.90;;;;;;5089940;28;20510;-69
2021/05/04 08:08:12;;;;;;;9.30;6.30;;;16.00;99.90;;;;;;5088913;28;20465;-67
2021/05/04 08:10:38;;;;;;;8.43;6.47;;;16.40;99.40;;;;;;5089771;28;20552;-69
2021/05/04 08:13:04;;;;;;;7.13;5.97;;;16.30;97.50;;;;;;5088352;28;20923;-67
2021/05/04 08:15:29;;;;;;;10.40;6.07;;;16.30;97.70;;;;;;5087186;28;20188;-68
2021/05/04 08:17:57;;;;;;;8.93;5.77;;;16.40;97.20;;;;;;5083309;28;20485;-68
2021/05/04 08:20:27;;;;;;;7.37;5.80;;;16.40;95.90;;;;;;5088683;28;20177;-70
2021/05/04 08:22:52;;;;;;;8.80;6.63;;;16.00;96.70;;;;;;5090444;28;20474;-67
2021/05/04 08:25:19;;;;;;;8.17;6.00;;;16.20;97.50;;;;;;5088291;28;20409;-68
2021/05/04 08:27:45;;;;;;;11.80;6.43;;;16.30;96.00;;;;;;5090511;28;20192;-69
2021/05/04 08:30:13;;;;;;;10.93;6.40;;;16.50;95.80;;;;;;5105036;28;20557;-70
2021/05/04 08:32:41;;;;;;;8.57;5.40;;;16.70;95.30;;;;;;5087518;28;20458;-69
2021/05/04 08:35:07;;;;;;;5.73;5.00;;;16.80;95.00;;;;;;5089959;28;20417;-68
2021/05/04 08:37:32;;;;;;;14.43;6.53;;;16.80;93.80;;;;;;5088151;28;20526;-67
2021/05/04 08:39:58;;;;;;;6.70;5.07;;;16.40;93.30;;;;;;5086166;28;20429;-69
2021/05/04 08:42:23;;;;;;;7.60;5.73;;;16.60;93.90;;;;;;5074756;28;20646;-66
2021/05/04 08:44:53;;;;;;;7.00;4.67;;;16.60;94.80;;;;;;5090305;28;20594;-67
2021/05/04 08:47:22;;;;;;;6.40;5.00;;;17.10;92.90;;;;;;5089922;28;20173;-67
2021/05/04 08:49:49;;;;;;;6.13;4.87;;;17.30;92.30;;;;;;5092376;28;20774;-66
2021/05/04 08:52:16;;;;;;;5.80;4.50;;;17.10;91.70;;;;;;5090299;28;20429;-67
2021/05/04 08:54:42;;;;;;;5.30;4.10;;;16.90;91.40;;;;;;5089727;28;20448;-69
2021/05/04 08:57:07;;;;;;;5.83;4.10;;;17.10;91.70;;;;;;5088486;28;20875;-70
2021/05/04 08:59:33;;;;;;;5.07;4.27;;;16.80;91.20;;;;;;5089260;28;20209;-68
2021/05/04 09:01:59;;;;;;;6.63;3.93;;;16.80;89.90;;;;;;5090215;28;20211;-68
2021/05/04 09:04:35;;;;;;;7.10;4.67;;;17.10;90.30;;;;;;5093247;28;20295;-68
2021/05/04 09:07:33;;;;;;;7.90;4.80;;;17.50;88.60;;;;;;5092591;28;20441;-67
2021/05/04 09:10:36;;;;;;;5.40;4.60;;;17.30;90.00;;;;;;5093091;28;20920;-67
2021/05/04 09:21:26;;;;;;;7.70;5.27;;;17.80;89.00;;;;;;5087812;28;20448;-69
2021/05/04 09:23:54;;;;;;;7.23;4.60;;;17.60;90.00;;;;;;5091110;28;20792;-67
2021/05/04 09:26:41;;;;;;;7.80;4.90;;;18.00;88.00;;;;;;5069030;28;20428;-68
2021/05/04 09:29:10;;;;;;;7.70;4.00;;;17.30;86.00;;;;;;5090674;28;20470;-66
2021/05/04 09:31:38;;;;;;;8.17;4.10;;;17.30;86.50;;;;;;5089850;28;20419;-67
2021/05/04 09:34:12;;;;;;;6.80;4.03;;;17.20;82.70;;;;;;5089388;28;20843;-69
2021/05/04 09:36:50;;;;;;;5.33;4.00;;;17.70;83.40;;;;;;5085245;28;20509;-67
2021/05/04 09:39:29;;;;;;;6.90;3.90;;;18.00;82.90;;;;;;5090711;28;20804;-68
2021/05/04 09:41:57;;;;;;;5.10;3.57;;;18.00;82.30;;;;;;5089597;28;20426;-69
2021/05/04 09:44:43;;;;;;;5.80;4.03;;;18.50;81.60;;;;;;5091591;28;21037;-66
2021/05/04 09:47:12;;;;;;;5.30;3.80;;;18.20;79.60;;;;;;5085909;28;21017;-70
2021/05/04 09:49:39;;;;;;;6.13;3.90;;;18.40;79.60;;;;;;5088327;28;20458;-67
2021/05/04 09:52:21;;;;;;;9.27;5.60;;;18.40;78.80;;;;;;5085558;28;20426;-69
2021/05/04 09:54:47;;;;;;;6.00;4.67;;;17.60;78.10;;;;;;5084322;28;21996;-68
2021/05/04 09:57:33;;;;;;;7.60;4.47;;;17.90;80.30;;;;;;5089722;28;20484;-67
2021/05/04 09:59:59;;;;;;;6.83;4.80;;;18.10;79.00;;;;;;5085465;28;20575;-69
2021/05/04 10:02:25;;;;;;;5.73;4.87;;;18.10;78.70;;;;;;5085031;28;20435;-68
2021/05/04 10:04:54;;;;;;;8.27;5.17;;;18.50;79.10;;;;;;5087124;28;20430;-66
2021/05/04 10:07:20;;;;;;;6.03;3.93;;;17.90;77.10;;;;;;5079852;28;20558;-67
2021/05/04 10:09:47;;;;;;;5.83;4.20;;;17.90;77.90;;;;;;5091628;28;20999;-66
2021/05/04 10:12:14;;;;;;;6.17;4.47;;;18.60;78.30;;;;;;5088806;28;20431;-70
2021/05/04 10:14:42;;;;;;;4.23;3.40;;;18.40;75.50;;;;;;5086104;28;20438;-69
2021/05/04 10:17:09;;;;;;;4.80;4.23;;;18.40;75.30;;;;;;5091288;28;20477;-66
2021/05/04 10:19:39;;;;;;;6.47;4.13;;;18.60;75.60;;;;;;5089083;28;20450;-66
2021/05/04 10:22:05;;;;;;;6.80;4.00;;;18.60;77.80;;;;;;5091989;28;20430;-66
2021/05/04 10:24:34;;;;;;;5.83;3.30;;;18.70;76.30;;;;;;5089848;28;20882;-69
2021/05/04 10:27:04;;;;;;;3.20;2.90;;;18.60;74.80;;;;;;5091705;28;20446;-67
2021/05/04 10:29:30;;;;;;;4.40;3.33;;;18.10;74.60;;;;;;5089392;28;20456;-67
2021/05/04 10:31:58;;;;;;;4.40;3.20;;;18.40;77.40;;;;;;5089249;28;20411;-66
2021/05/04 10:34:24;;;;;;;3.97;2.80;;;18.60;75.10;;;;;;5101775;28;20515;-67
2021/05/04 10:36:54;;;;;;;6.67;4.27;;;18.70;77.80;;;;;;5089048;28;20476;-67
2021/05/04 10:39:42;;;;;;;4.23;3.23;;;18.80;73.50;;;;;;5090189;28;20874;-69
2021/05/04 10:42:10;;;;;;;5.43;3.33;;;18.50;74.50;;;;;;5089268;28;20964;-66
2021/05/04 10:44:56;;;;;;;5.83;4.10;;;18.70;75.60;;;;;;5087915;28;20468;-66
2021/05/04 10:47:44;;;;;;;5.17;3.17;;;18.90;74.70;;;;;;5087147;28;20451;-69
2021/05/04 10:50:15;;;;;;;4.43;3.60;;;19.00;73.60;;;;;;5088139;28;20436;-69
2021/05/04 10:53:03;;;;;;;6.37;3.50;;;19.30;73.60;;;;;;5087063;28;20460;-69
2021/05/04 10:55:53;;;;;;;4.20;3.20;;;19.60;74.80;;;;;;5081989;28;20419;-69
2021/05/04 10:58:20;;;;;;;5.07;3.53;;;19.10;73.90;;;;;;5076824;28;20479;-69
2021/05/04 11:00:48;;;;;;;4.00;3.57;;;19.60;72.10;;;;;;5077932;28;21189;-69
2021/05/04 11:03:29;;;;;;;3.03;2.70;;;19.40;70.80;;;;;;5082411;28;20471;-68
2021/05/04 11:05:55;;;;;;;3.93;3.10;;;19.50;72.10;;;;;;5087357;28;20509;-66
2021/05/04 11:08:23;;;;;;;3.30;2.90;;;19.50;72.50;;;;;;5088352;28;20563;-69
2021/05/04 11:11:16;;;;;;;5.70;2.80;;;19.50;72.90;;;;;;5090571;28;20503;-66
2021/05/04 11:13:59;;;;;;;4.00;2.93;;;19.80;72.10;;;;;;5087031;28;20471;-66
2021/05/04 11:16:36;;;;;;;5.43;4.30;;;19.90;73.70;;;;;;5088746;28;20529;-66
2021/05/04 11:19:22;;;;;;;5.87;2.97;;;19.30;70.80;;;;;;5084318;28;20464;-69
2021/05/04 11:22:02;;;;;;;4.70;2.73;;;19.70;70.20;;;;;;5088865;28;20424;-69
2021/05/04 11:24:33;;;;;;;3.23;2.47;;;19.80;71.10;;;;;;5084678;28;20464;-66
2021/05/04 11:27:18;;;;;;;9.10;3.90;;;19.20;72.10;;;;;;5087478;28;20450;-66
2021/05/04 11:29:45;;;;;;;3.40;3.10;;;19.30;69.30;;;;;;5091655;28;20496;-68
2021/05/04 11:32:29;;;;;;;4.17;3.07;;;19.50;70.10;;;;;;5089257;28;20538;-69
2021/05/04 11:34:59;;;;;;;3.57;2.90;;;19.50;70.20;;;;;;5090153;28;20483;-66
2021/05/04 11:37:31;;;;;;;4.17;3.43;;;19.90;73.00;;;;;;5083939;28;20474;-66
2021/05/04 11:40:04;;;;;;;6.43;3.80;;;19.80;68.20;;;;;;5087664;28;20442;-66
2021/05/04 11:42:57;;;;;;;3.70;3.23;;;19.80;68.90;;;;;;5087557;28;20411;-66
2021/05/04 11:45:29;;;;;;;4.10;3.40;;;19.40;68.50;;;;;;5081627;28;20433;-67
2021/05/04 11:48:03;;;;;;;2.60;2.40;;;19.50;69.00;;;;;;5086379;28;20994;-67
2021/05/04 11:50:33;;;;;;;9.03;4.73;;;19.80;68.80;;;;;;5086541;28;20429;-69
2021/05/04 11:53:01;;;;;;;4.13;3.73;;;20.40;68.70;;;;;;5084888;28;20877;-66
2021/05/04 11:55:29;;;;;;;5.10;3.43;;;20.10;67.50;;;;;;5076160;28;20448;-69
2021/05/04 11:58:06;;;;;;;3.50;3.10;;;20.10;69.20;;;;;;5081589;28;20467;-68
2021/05/04 12:00:34;;;;;;;4.20;3.07;;;20.30;68.40;;;;;;5085306;28;20779;-66
2021/05/04 12:03:06;;;;;;;4.40;3.07;;;20.10;69.60;;;;;;5073197;28;20554;-68
2021/05/04 12:05:34;;;;;;;4.27;3.10;;;19.80;67.60;;;;;;5072388;28;20450;-69
2021/05/04 12:08:02;;;;;;;3.17;2.83;;;19.80;69.30;;;;;;5087764;28;20503;-70
2021/05/04 12:10:38;;;;;;;4.93;3.60;;;19.90;69.80;;;;;;5090834;28;20447;-69
2021/05/04 12:13:09;;;;;;;3.53;3.13;;;19.90;67.40;;;;;;5082865;28;20470;-69
2021/05/04 12:15:37;;;;;;;7.57;5.77;;;20.20;68.70;;;;;;5079144;28;20421;-70
2021/05/04 12:18:12;;;;;;;4.17;3.50;;;20.30;69.50;;;;;;5080355;28;20463;-69
2021/05/04 12:20:46;;;;;;;3.60;3.10;;;20.40;69.60;;;;;;5083968;28;20433;-66
2021/05/04 12:23:14;;;;;;;4.07;2.80;;;20.10;67.50;;;;;;5086020;28;21012;-69
2021/05/04 12:25:48;;;;;;;5.60;3.30;;;20.20;67.80;;;;;;5086152;28;20471;-71
2021/05/04 12:28:19;;;;;;;4.10;3.17;;;21.00;67.80;;;;;;5088657;28;20461;-68
2021/05/04 12:30:46;;;;;;;6.90;4.90;;;21.00;67.70;;;;;;5088963;28;20839;-70
2021/05/04 12:33:12;;;;;;;3.97;2.90;;;20.50;66.60;;;;;;5077623;28;20449;-69
2021/05/04 12:35:48;;;;;;;4.37;3.47;;;21.10;67.00;;;;;;5087837;28;20428;-67
2021/05/04 12:38:40;;;;;;;4.80;3.30;;;21.40;66.70;;;;;;5083353;28;20501;-70
2021/05/04 12:41:25;;;;;;;3.40;3.10;;;21.70;68.60;;;;;;5081398;28;20448;-69
2021/05/04 12:44:05;;;;;;;2.70;2.50;;;22.00;65.70;;;;;;5086784;28;20466;-68
2021/05/04 12:46:34;;;;;;;6.77;3.30;;;21.50;65.40;;;;;;5075668;28;20950;-66
2021/05/04 12:49:01;;;;;;;3.67;3.17;;;21.30;66.80;;;;;;5084042;28;20499;-67
2021/05/04 12:51:32;;;;;;;5.10;2.93;;;21.20;67.40;;;;;;5082142;28;21003;-69
2021/05/04 12:54:08;;;;;;;3.17;2.97;;;21.30;65.60;;;;;;5091227;28;20475;-68
2021/05/04 12:56:34;;;;;;;4.33;2.63;;;21.10;65.30;;;;;;5089365;28;20472;-67